Nearby METAR Reports

 

EGWC - Cosford Raf, United Kingdom
Distance from station: SSW 22km
Updated: 28/02/2024 15:50

 Wind from S
Wind: S 20 km/h
2024/02/28 15:50 EGWC 281550Z AUTO 19011KT //// ///////// ///// Q////
EGOS - Shawbury Raf, United Kingdom
Distance from station: W 37km
Updated: 28/02/2024 16:20
Mostly cloudy
Mostly cloudy
 Wind from S
Wind: S 19 km/h
Temperature: 9°C
Wind Chill: 6°C
Dew Point: 8°C
Humidity: 94%
Barometer: 1009 hPa
Clouds: Mostly cloudy
Visibility: 10 km
Cloud details: Few Clouds 427 m
Partly cloudy 488 m
Mostly cloudy 762 m
2024/02/28 16:20 EGOS 281620Z 18010KT 9999 FEW014 SCT016 BKN025 09/08 Q1009 TEMPO SCT014 RMK WHT TEMPO GRN
 
EGBB - Birmingham Airpo, United Kingdom
Distance from station: SE 44km
Updated: 28/02/2024 16:20
Mostly cloudy
Mostly cloudy
 Wind from S
Wind: S 17 km/h
Temperature: 10°C
Wind Chill: 8°C
Dew Point: 9°C
Humidity: 94%
Barometer: 1011 hPa
Clouds: Mostly cloudy
Visibility: 10 km
Cloud details: Mostly cloudy 244 m
2024/02/28 16:20 EGBB 281620Z 19009KT 9999 BKN008 10/09 Q1011
EGNX - East Midlands, United Kingdom
Distance from station: E 54km
Updated: 28/02/2024 16:20
Light drizzle, Mostly cloudy
Light drizzle, Mostly cloudy
 Wind from SSW
Wind: SSW 26 km/h
Temperature: 9°C
Wind Chill: 6°C
Dew Point: 8°C
Humidity: 94%
Barometer: 1010 hPa
Summary: Light Drizzle
Clouds: Mostly cloudy
Visibility: 10 km
Cloud details: Mostly cloudy 274 m
2024/02/28 16:20 EGNX 281620Z 20014KT 9999 -DZ BKN009 09/08 Q1010
 
EGCC - Manchester Intl, United Kingdom
Distance from station: N 63km
Updated: 28/02/2024 16:20
Light rain, Mostly cloudy
Light rain, Mostly cloudy
 Wind from S
Wind: S 15 km/h
Temperature: 10°C
Wind Chill: 8°C
Dew Point: 8°C
Humidity: 88%
Barometer: 1009 hPa
Summary: Light rain
Clouds: Mostly cloudy
Visibility: 10 km
Cloud details: Partly cloudy 305 m
Mostly cloudy 610 m
2024/02/28 16:20 EGCC 281620Z 18008KT 140V220 9999 -RA SCT010 BKN020 10/08 Q1009
EGBE - Coventry Airport, United Kingdom
Distance from station: SE 65km
Updated: 18/07/2017 14:50
NOT Current
Clear
Clear
 Wind from E
Wind: E 26 km/h
Temperature: 27°C
Heat Index: 27°C
Dew Point: 14°C
Humidity: 45%
Barometer: 1015 hPa
Summary: Clear
Visibility: greater than 10 km
2017/07/18 13:50 EGBE 181350Z 10014KT 060V120 CAVOK 27/14 Q1015
 
EGNR - Hawarden (aut), United Kingdom
Distance from station: NW 70km
Updated: 28/02/2024 16:20
Nearby showers, Mostly cloudy
Nearby showers, Mostly cloudy
 Wind from SSE
Wind: SSE 15 km/h
Temperature: 10°C
Wind Chill: 8°C
Dew Point: 9°C
Humidity: 94%
Barometer: 1009 hPa
Summary: Nearby Showers
Clouds: Mostly cloudy
Visibility: 10 km
Cloud details: Mostly cloudy 640 m
2024/02/28 16:20 EGNR 281620Z 15008KT 9999 VCSH BKN021 10/09 Q1009
EGGP - Liverpool Airpor, United Kingdom
Distance from station: NW 76km
Updated: 28/02/2024 16:20
Light rain, Mostly cloudy
Light rain, Mostly cloudy
 Wind from S
Wind: S 13 km/h
Temperature: 10°C
Wind Chill: 8°C
Dew Point: 9°C
Humidity: 94%
Barometer: 1008 hPa
Summary: Light rain
Clouds: Mostly cloudy
Visibility: 8 km
Cloud details: Few Clouds 610 m
Partly cloudy 1189 m
Mostly cloudy 1372 m
2024/02/28 16:20 EGGP 281620Z 17007KT 8000 -RA FEW020 SCT039 BKN045 10/09 Q1008